CFG290 EDDM-LTAI
Flight info
| Callsign | CFG290 |
|---|---|
| Flight time | N/A |
| Altitude | 41000 |
| Route | VAVOR3Q VAVOR M867 RADIZ DCT EVAXI DCT NIPEL DCT GORPA DCT KUSIB DCT KOMAR DCT OKSIG DCT MITNO DCT VABEK UL603 OLOTA DCT RUGAS DCT RIKSO UN127 IMR UN135 NESIL |
| Aircraft | A339/H-SADE1E2E3GHIJ3J5M1P2RWXY/LB2D1 |
Departure
| Time | 2026-04-30 20:28 |
|---|---|
| Airport | Munich Airport (EDDM) |
Arrival
| Time | N/A |
|---|---|
| Airport | Antalya International Airport (LTAI) |
| Time | Latitude | Longitude | Altitude | Speed | Heading |
|---|---|---|---|---|---|
| 2026-04-30 19:40 | 48.35378 | 11.78314 | 1472 ft | 0 kts | 84° |
| 2026-04-30 20:15 | 48.35377 | 11.78297 | 1463 ft | 3 kts | 84° |
| 2026-04-30 20:15 | 48.35374 | 11.78267 | 1464 ft | 3 kts | 84° |
| 2026-04-30 20:16 | 48.35372 | 11.78237 | 1462 ft | 3 kts | 83° |
| 2026-04-30 20:16 | 48.35367 | 11.78206 | 1460 ft | 3 kts | 28° |
| 2026-04-30 20:16 | 48.35331 | 11.78188 | 1460 ft | 6 kts | 11° |
| 2026-04-30 20:16 | 48.35286 | 11.78173 | 1460 ft | 6 kts | 2° |
| 2026-04-30 20:17 | 48.35268 | 11.78172 | 1460 ft | 0 kts | 350° |
| 2026-04-30 20:20 | 48.35289 | 11.78168 | 1460 ft | 7 kts | 352° |
| 2026-04-30 20:20 | 48.35341 | 11.78129 | 1461 ft | 9 kts | 311° |
| 2026-04-30 20:20 | 48.35349 | 11.78026 | 1465 ft | 11 kts | 266° |
| 2026-04-30 20:20 | 48.35340 | 11.77901 | 1469 ft | 13 kts | 262° |
| 2026-04-30 20:21 | 48.35293 | 11.77794 | 1471 ft | 13 kts | 197° |
| 2026-04-30 20:21 | 48.35200 | 11.77806 | 1465 ft | 14 kts | 172° |
| 2026-04-30 20:21 | 48.35097 | 11.77825 | 1466 ft | 16 kts | 174° |
| 2026-04-30 20:21 | 48.34986 | 11.77844 | 1467 ft | 17 kts | 173° |
| 2026-04-30 20:22 | 48.34865 | 11.77865 | 1469 ft | 18 kts | 173° |
| 2026-04-30 20:22 | 48.34757 | 11.77883 | 1472 ft | 11 kts | 173° |
| 2026-04-30 20:22 | 48.34682 | 11.77876 | 1467 ft | 10 kts | 211° |
| 2026-04-30 20:22 | 48.34653 | 11.77781 | 1463 ft | 11 kts | 262° |
| 2026-04-30 20:23 | 48.34643 | 11.77660 | 1469 ft | 13 kts | 262° |
| 2026-04-30 20:23 | 48.34633 | 11.77517 | 1470 ft | 15 kts | 263° |
| 2026-04-30 20:23 | 48.34619 | 11.77353 | 1465 ft | 17 kts | 263° |
| 2026-04-30 20:23 | 48.34604 | 11.77171 | 1472 ft | 18 kts | 263° |
| 2026-04-30 20:24 | 48.34589 | 11.76973 | 1469 ft | 20 kts | 263° |
| 2026-04-30 20:24 | 48.34572 | 11.76763 | 1472 ft | 21 kts | 264° |
| 2026-04-30 20:24 | 48.34557 | 11.76536 | 1469 ft | 22 kts | 263° |
| 2026-04-30 20:24 | 48.34539 | 11.76303 | 1467 ft | 23 kts | 263° |
| 2026-04-30 20:25 | 48.34500 | 11.75799 | 1470 ft | 25 kts | 263° |
| 2026-04-30 20:25 | 48.34479 | 11.75533 | 1462 ft | 26 kts | 263° |
| 2026-04-30 20:26 | 48.34455 | 11.75193 | 1472 ft | 9 kts | 263° |
| 2026-04-30 20:26 | 48.34366 | 11.75064 | 1471 ft | 11 kts | 181° |
| 2026-04-30 20:26 | 48.34281 | 11.75075 | 1463 ft | 13 kts | 173° |
| 2026-04-30 20:27 | 48.34105 | 11.75166 | 1466 ft | 12 kts | 136° |
| 2026-04-30 20:27 | 48.34087 | 11.75378 | 1480 ft | 11 kts | 84° |
| 2026-04-30 20:28 | 48.34206 | 11.76931 | 1479 ft | 157 kts | 83° |
| 2026-04-30 20:28 | 48.34522 | 11.80632 | 2913 ft | 186 kts | 82° |
| 2026-04-30 20:29 | 48.34982 | 11.84534 | 4643 ft | 193 kts | 80° |
| 2026-04-30 20:30 | 48.35427 | 11.90950 | 6906 ft | 224 kts | 88° |
| 2026-04-30 20:30 | 48.33864 | 11.97698 | 8949 ft | 252 kts | 140° |
| 2026-04-30 20:31 | 48.29424 | 12.02294 | 11115 ft | 270 kts | 155° |
| 2026-04-30 20:32 | 48.23404 | 12.02419 | 12671 ft | 312 kts | 180° |
| 2026-04-30 20:32 | 48.18991 | 12.02104 | 14058 ft | 322 kts | 179° |
| 2026-04-30 20:33 | 48.16764 | 12.01972 | 14682 ft | 326 kts | 178° |
| 2026-04-30 20:33 | 48.12357 | 12.03146 | 15947 ft | 322 kts | 152° |
| 2026-04-30 20:33 | 48.10308 | 12.04529 | 16607 ft | 325 kts | 150° |
| 2026-04-30 20:34 | 48.03194 | 12.09177 | 18764 ft | 338 kts | 150° |
| 2026-04-30 20:34 | 47.94402 | 12.14850 | 20983 ft | 351 kts | 146° |
| 2026-04-30 20:35 | 47.90471 | 12.19052 | 22003 ft | 351 kts | 131° |
| 2026-04-30 20:35 | 47.86623 | 12.24014 | 22314 ft | 382 kts | 132° |
| 2026-04-30 20:35 | 47.71002 | 12.43515 | 25457 ft | 420 kts | 132° |
| 2026-04-30 20:36 | 47.62711 | 12.53717 | 27303 ft | 428 kts | 131° |
| 2026-04-30 20:36 | 47.58039 | 12.59305 | 28272 ft | 434 kts | 133° |
| 2026-04-30 20:36 | 47.48426 | 12.70538 | 30144 ft | 445 kts | 132° |
| 2026-04-30 20:37 | 47.43562 | 12.76213 | 30808 ft | 451 kts | 132° |
| 2026-04-30 20:37 | 47.38603 | 12.82017 | 31479 ft | 458 kts | 133° |
| 2026-04-30 20:37 | 47.33554 | 12.87896 | 32173 ft | 465 kts | 133° |
| 2026-04-30 20:37 | 47.28412 | 12.93857 | 32786 ft | 473 kts | 133° |
| 2026-04-30 20:38 | 47.23205 | 12.99889 | 33314 ft | 480 kts | 134° |
| 2026-04-30 20:38 | 47.17933 | 13.05980 | 33744 ft | 485 kts | 134° |
| 2026-04-30 20:38 | 47.12613 | 13.12109 | 34200 ft | 488 kts | 135° |
| 2026-04-30 20:39 | 47.04268 | 13.21674 | 34818 ft | 487 kts | 135° |
| 2026-04-30 20:39 | 47.01588 | 13.24745 | 34940 ft | 490 kts | 135° |
| 2026-04-30 20:39 | 46.98927 | 13.27794 | 35225 ft | 489 kts | 135° |
| 2026-04-30 20:40 | 46.93563 | 13.33924 | 35574 ft | 490 kts | 136° |
| 2026-04-30 20:40 | 46.90873 | 13.36989 | 35761 ft | 490 kts | 136° |
| 2026-04-30 20:40 | 46.88185 | 13.40049 | 35955 ft | 490 kts | 136° |
| 2026-04-30 20:41 | 46.82804 | 13.46159 | 36315 ft | 490 kts | 137° |
| 2026-04-30 20:41 | 46.80124 | 13.49201 | 36497 ft | 490 kts | 137° |
| 2026-04-30 20:41 | 46.77558 | 13.52477 | 36669 ft | 486 kts | 130° |
| 2026-04-30 20:41 | 46.75306 | 13.56120 | 36863 ft | 481 kts | 123° |
| 2026-04-30 20:42 | 46.73216 | 13.59939 | 37046 ft | 482 kts | 124° |
| 2026-04-30 20:42 | 46.71117 | 13.63753 | 37256 ft | 483 kts | 124° |
| 2026-04-30 20:42 | 46.66902 | 13.71339 | 37628 ft | 483 kts | 124° |
| 2026-04-30 20:43 | 46.64768 | 13.75156 | 37805 ft | 484 kts | 125° |
| 2026-04-30 20:43 | 46.62639 | 13.78958 | 38005 ft | 484 kts | 125° |
| 2026-04-30 20:43 | 46.60512 | 13.82753 | 38181 ft | 485 kts | 125° |
| 2026-04-30 20:44 | 46.56240 | 13.90352 | 38552 ft | 485 kts | 126° |
| 2026-04-30 20:44 | 46.54109 | 13.94137 | 38721 ft | 486 kts | 126° |
| 2026-04-30 20:44 | 46.49847 | 14.01692 | 39070 ft | 486 kts | 126° |
| 2026-04-30 20:45 | 46.45648 | 14.09349 | 39342 ft | 486 kts | 124° |
| 2026-04-30 20:45 | 46.43603 | 14.13249 | 39472 ft | 486 kts | 124° |
| 2026-04-30 20:45 | 46.41556 | 14.17152 | 39557 ft | 488 kts | 124° |
| 2026-04-30 20:46 | 46.35331 | 14.28877 | 39927 ft | 490 kts | 125° |
| 2026-04-30 20:46 | 46.33244 | 14.32777 | 40076 ft | 490 kts | 125° |
| 2026-04-30 20:47 | 46.29066 | 14.40569 | 40324 ft | 491 kts | 125° |
| 2026-04-30 20:47 | 46.26969 | 14.44471 | 40453 ft | 491 kts | 125° |
| 2026-04-30 20:48 | 46.22773 | 14.52264 | 40689 ft | 491 kts | 125° |
| 2026-04-30 20:48 | 46.20669 | 14.56162 | 40826 ft | 492 kts | 125° |
| 2026-04-30 20:48 | 46.18568 | 14.60051 | 40930 ft | 492 kts | 126° |
| 2026-04-30 20:48 | 46.16463 | 14.63940 | 41044 ft | 492 kts | 126° |
| 2026-04-30 20:49 | 46.14356 | 14.67827 | 41168 ft | 493 kts | 126° |
| 2026-04-30 20:49 | 46.12236 | 14.71734 | 41280 ft | 493 kts | 126° |
| 2026-04-30 20:50 | 46.05904 | 14.83369 | 41389 ft | 493 kts | 126° |
| 2026-04-30 20:50 | 46.01656 | 14.91148 | 41387 ft | 493 kts | 126° |
| 2026-04-30 20:51 | 45.97439 | 14.98851 | 41388 ft | 493 kts | 126° |
| 2026-04-30 20:51 | 45.91061 | 15.10459 | 41390 ft | 494 kts | 126° |
| 2026-04-30 20:52 | 45.86797 | 15.18194 | 41395 ft | 494 kts | 126° |
| 2026-04-30 20:53 | 45.80389 | 15.29777 | 41402 ft | 495 kts | 127° |
| 2026-04-30 20:53 | 45.76104 | 15.37505 | 41399 ft | 495 kts | 127° |
| 2026-04-30 20:54 | 45.69715 | 15.49144 | 41396 ft | 496 kts | 126° |
| 2026-04-30 20:55 | 45.63308 | 15.60768 | 41387 ft | 496 kts | 127° |
| 2026-04-30 20:55 | 45.59027 | 15.68501 | 41383 ft | 496 kts | 127° |
| 2026-04-30 20:56 | 45.52588 | 15.80091 | 41385 ft | 497 kts | 127° |
| 2026-04-30 20:57 | 45.46165 | 15.91607 | 41380 ft | 497 kts | 127° |
| 2026-04-30 20:57 | 45.41850 | 15.99316 | 41376 ft | 497 kts | 127° |
| 2026-04-30 20:58 | 45.35373 | 16.10849 | 41371 ft | 498 kts | 127° |
| 2026-04-30 20:58 | 45.31035 | 16.18547 | 41370 ft | 498 kts | 127° |
| 2026-04-30 20:59 | 45.24526 | 16.30059 | 41369 ft | 499 kts | 127° |
| 2026-04-30 21:00 | 45.15859 | 16.45316 | 41354 ft | 499 kts | 128° |
| 2026-04-30 21:01 | 45.09355 | 16.56739 | 41375 ft | 500 kts | 128° |
| 2026-04-30 21:02 | 45.03581 | 16.66854 | 41359 ft | 501 kts | 128° |
| 2026-04-30 21:02 | 44.98526 | 16.75677 | 41361 ft | 501 kts | 128° |
| 2026-04-30 21:03 | 44.93328 | 16.84622 | 41362 ft | 501 kts | 129° |
| 2026-04-30 21:03 | 44.84324 | 16.99315 | 41366 ft | 502 kts | 128° |
| 2026-04-30 21:04 | 44.78002 | 17.12709 | 41363 ft | 501 kts | 121° |
| 2026-04-30 21:04 | 44.66777 | 17.37091 | 41362 ft | 503 kts | 122° |
| 2026-04-30 21:05 | 44.59259 | 17.53287 | 41359 ft | 503 kts | 122° |
| 2026-04-30 21:05 | 44.49468 | 17.74250 | 41348 ft | 504 kts | 122° |
| 2026-04-30 21:06 | 44.33992 | 18.07072 | 41371 ft | 504 kts | 122° |
| 2026-04-30 21:06 | 44.23800 | 18.28487 | 41347 ft | 505 kts | 123° |
| 2026-04-30 21:07 | 44.15984 | 18.44800 | 41342 ft | 506 kts | 123° |
| 2026-04-30 21:07 | 44.08133 | 18.61096 | 41344 ft | 506 kts | 123° |
| 2026-04-30 21:08 | 43.96364 | 18.85359 | 41346 ft | 505 kts | 123° |
| 2026-04-30 21:08 | 43.82614 | 19.13449 | 41348 ft | 504 kts | 124° |
| 2026-04-30 21:09 | 43.74513 | 19.29289 | 41332 ft | 504 kts | 127° |
| 2026-04-30 21:09 | 43.66069 | 19.44739 | 41335 ft | 504 kts | 127° |
| 2026-04-30 21:10 | 43.57584 | 19.60153 | 41337 ft | 504 kts | 128° |
| 2026-04-30 21:10 | 43.49175 | 19.75343 | 41332 ft | 505 kts | 128° |
| 2026-04-30 21:11 | 43.41045 | 19.89955 | 41337 ft | 505 kts | 128° |
| 2026-04-30 21:11 | 43.28326 | 20.12674 | 41329 ft | 506 kts | 128° |
| 2026-04-30 21:12 | 43.19715 | 20.27952 | 41333 ft | 506 kts | 129° |
| 2026-04-30 21:12 | 43.11066 | 20.43219 | 41315 ft | 507 kts | 129° |
| 2026-04-30 21:13 | 43.02393 | 20.58452 | 41303 ft | 508 kts | 129° |
| 2026-04-30 21:13 | 42.92587 | 20.72216 | 41289 ft | 506 kts | 138° |
| 2026-04-30 21:14 | 42.82408 | 20.85474 | 41284 ft | 507 kts | 138° |
| 2026-04-30 21:14 | 42.72178 | 20.98745 | 41295 ft | 507 kts | 138° |
| 2026-04-30 21:15 | 42.61995 | 21.11891 | 41311 ft | 507 kts | 138° |
| 2026-04-30 21:15 | 42.51782 | 21.25013 | 41289 ft | 507 kts | 139° |
| 2026-04-30 21:16 | 42.38040 | 21.42577 | 41284 ft | 503 kts | 139° |
| 2026-04-30 21:16 | 42.29327 | 21.53648 | 41278 ft | 505 kts | 139° |
| 2026-04-30 21:17 | 42.19108 | 21.66731 | 41296 ft | 506 kts | 137° |
| 2026-04-30 21:17 | 42.09074 | 21.80147 | 41281 ft | 508 kts | 138° |
| 2026-04-30 21:18 | 41.98988 | 21.93463 | 41278 ft | 509 kts | 138° |
| 2026-04-30 21:18 | 41.90309 | 22.04871 | 41261 ft | 510 kts | 138° |
| 2026-04-30 21:19 | 41.81916 | 22.15858 | 41252 ft | 510 kts | 139° |
| 2026-04-30 21:19 | 41.71961 | 22.28836 | 41247 ft | 510 kts | 139° |
| 2026-04-30 21:20 | 41.62248 | 22.41441 | 41241 ft | 510 kts | 139° |
| 2026-04-30 21:20 | 41.54358 | 22.51639 | 41222 ft | 510 kts | 139° |
| 2026-04-30 21:21 | 41.46565 | 22.61678 | 41206 ft | 509 kts | 139° |
| 2026-04-30 21:22 | 41.34881 | 22.76660 | 41217 ft | 509 kts | 140° |
| 2026-04-30 21:23 | 41.20236 | 22.98769 | 41190 ft | 512 kts | 134° |
| 2026-04-30 21:23 | 41.09275 | 23.15612 | 41147 ft | 514 kts | 134° |
| 2026-04-30 21:24 | 41.02274 | 23.26313 | 41155 ft | 514 kts | 134° |
| 2026-04-30 21:24 | 40.93837 | 23.39159 | 41173 ft | 514 kts | 134° |
| 2026-04-30 21:25 | 40.82395 | 23.56493 | 41171 ft | 515 kts | 134° |
| 2026-04-30 21:26 | 40.71389 | 23.73059 | 41158 ft | 515 kts | 135° |
| 2026-04-30 21:27 | 40.60435 | 23.89475 | 41142 ft | 514 kts | 135° |
| 2026-04-30 21:27 | 40.53120 | 24.00386 | 41154 ft | 513 kts | 135° |
| 2026-04-30 21:28 | 40.42201 | 24.16603 | 41155 ft | 512 kts | 135° |
| 2026-04-30 21:29 | 40.31204 | 24.32850 | 41144 ft | 511 kts | 135° |
| 2026-04-30 21:30 | 40.17471 | 24.53017 | 41143 ft | 509 kts | 135° |
| 2026-04-30 21:31 | 40.08144 | 24.66637 | 41138 ft | 508 kts | 135° |
| 2026-04-30 21:32 | 40.02509 | 24.74837 | 41126 ft | 508 kts | 135° |
| 2026-04-30 21:32 | 39.98671 | 24.80410 | 41120 ft | 508 kts | 135° |
| 2026-04-30 21:33 | 39.92905 | 24.88762 | 41106 ft | 507 kts | 135° |
| 2026-04-30 21:34 | 39.89044 | 24.94343 | 41109 ft | 507 kts | 135° |
| 2026-04-30 21:34 | 39.83334 | 25.02576 | 41101 ft | 506 kts | 135° |
| 2026-04-30 21:35 | 39.80095 | 25.06822 | 39743 ft | 314 kts | 158° |
| 2026-04-30 21:35 | 39.78923 | 25.07915 | 27354 ft | 213 kts | 149° |
| 2026-04-30 21:35 | 39.77910 | 25.09118 | 14253 ft | 162 kts | 155° |
| 2026-04-30 21:36 | 39.77347 | 25.09074 | 1726 ft | 0 kts | 99° |
| 2026-04-30 21:36 | 48.35378 | 11.78314 | 1468 ft | 0 kts | 84° |